sensor_id;sensor_type;location;lat;lon;timestamp;P1;durP1;ratioP1;P2;durP2;ratioP2
26540;SDS011;14206;50.202;10.948;2023-08-08T00:01:58;1.10;;;1.00;;
26540;SDS011;14206;50.202;10.948;2023-08-08T00:04:25;1.65;;;0.93;;
26540;SDS011;14206;50.202;10.948;2023-08-08T00:06:52;1.30;;;1.00;;
26540;SDS011;14206;50.202;10.948;2023-08-08T00:09:19;1.00;;;0.90;;
26540;SDS011;14206;50.202;10.948;2023-08-08T00:11:45;1.30;;;1.00;;
26540;SDS011;14206;50.202;10.948;2023-08-08T00:14:12;0.85;;;0.80;;
26540;SDS011;14206;50.202;10.948;2023-08-08T00:16:39;0.80;;;0.80;;
26540;SDS011;14206;50.202;10.948;2023-08-08T00:19:06;0.70;;;0.70;;
26540;SDS011;14206;50.202;10.948;2023-08-08T00:21:33;0.70;;;0.70;;
26540;SDS011;14206;50.202;10.948;2023-08-08T00:24:00;0.70;;;0.70;;
26540;SDS011;14206;50.202;10.948;2023-08-08T00:26:26;1.40;;;0.77;;
26540;SDS011;14206;50.202;10.948;2023-08-08T00:28:53;0.90;;;0.90;;
26540;SDS011;14206;50.202;10.948;2023-08-08T00:31:20;0.88;;;0.88;;
26540;SDS011;14206;50.202;10.948;2023-08-08T00:33:47;1.15;;;0.88;;
26540;SDS011;14206;50.202;10.948;2023-08-08T00:36:14;2.95;;;1.17;;
26540;SDS011;14206;50.202;10.948;2023-08-08T00:38:41;3.15;;;1.40;;
26540;SDS011;14206;50.202;10.948;2023-08-08T00:41:07;2.03;;;1.30;;
26540;SDS011;14206;50.202;10.948;2023-08-08T00:43:34;3.17;;;1.60;;
26540;SDS011;14206;50.202;10.948;2023-08-08T00:46:01;1.60;;;1.33;;
26540;SDS011;14206;50.202;10.948;2023-08-08T00:48:28;1.27;;;1.13;;
26540;SDS011;14206;50.202;10.948;2023-08-08T00:50:55;1.17;;;1.08;;
26540;SDS011;14206;50.202;10.948;2023-08-08T00:53:22;2.72;;;1.77;;
26540;SDS011;14206;50.202;10.948;2023-08-08T00:55:53;1.30;;;1.10;;
26540;SDS011;14206;50.202;10.948;2023-08-08T00:58:20;1.67;;;1.20;;
26540;SDS011;14206;50.202;10.948;2023-08-08T01:00:47;1.20;;;1.10;;
26540;SDS011;14206;50.202;10.948;2023-08-08T01:03:14;1.90;;;1.38;;
26540;SDS011;14206;50.202;10.948;2023-08-08T01:05:43;1.38;;;1.08;;
26540;SDS011;14206;50.202;10.948;2023-08-08T01:08:16;0.82;;;0.82;;
26540;SDS011;14206;50.202;10.948;2023-08-08T01:10:51;0.75;;;0.75;;
26540;SDS011;14206;50.202;10.948;2023-08-08T01:13:22;0.90;;;0.90;;
26540;SDS011;14206;50.202;10.948;2023-08-08T01:15:50;0.95;;;0.80;;
26540;SDS011;14206;50.202;10.948;2023-08-08T01:18:20;0.90;;;0.80;;
26540;SDS011;14206;50.202;10.948;2023-08-08T01:20:48;1.00;;;0.90;;
26540;SDS011;14206;50.202;10.948;2023-08-08T01:23:19;0.70;;;0.70;;
26540;SDS011;14206;50.202;10.948;2023-08-08T01:25:54;0.93;;;0.73;;
26540;SDS011;14206;50.202;10.948;2023-08-08T01:28:25;0.77;;;0.77;;
26540;SDS011;14206;50.202;10.948;2023-08-08T01:30:52;2.17;;;0.65;;
26540;SDS011;14206;50.202;10.948;2023-08-08T01:33:20;1.23;;;1.05;;
26540;SDS011;14206;50.202;10.948;2023-08-08T01:35:50;1.90;;;1.15;;
26540;SDS011;14206;50.202;10.948;2023-08-08T01:38:31;1.80;;;1.30;;
26540;SDS011;14206;50.202;10.948;2023-08-08T01:41:04;1.30;;;1.10;;
26540;SDS011;14206;50.202;10.948;2023-08-08T01:43:34;1.25;;;1.05;;
26540;SDS011;14206;50.202;10.948;2023-08-08T01:46:02;1.55;;;1.00;;
26540;SDS011;14206;50.202;10.948;2023-08-08T01:48:30;1.40;;;1.30;;
26540;SDS011;14206;50.202;10.948;2023-08-08T01:50:58;1.80;;;1.20;;
26540;SDS011;14206;50.202;10.948;2023-08-08T01:53:25;1.27;;;1.05;;
26540;SDS011;14206;50.202;10.948;2023-08-08T01:55:52;1.15;;;0.90;;
26540;SDS011;14206;50.202;10.948;2023-08-08T01:58:19;1.67;;;1.10;;
26540;SDS011;14206;50.202;10.948;2023-08-08T02:00:46;1.33;;;1.10;;
26540;SDS011;14206;50.202;10.948;2023-08-08T02:03:13;1.27;;;1.17;;
26540;SDS011;14206;50.202;10.948;2023-08-08T02:05:42;1.02;;;0.93;;
26540;SDS011;14206;50.202;10.948;2023-08-08T02:08:09;3.38;;;1.92;;
26540;SDS011;14206;50.202;10.948;2023-08-08T02:10:36;2.22;;;1.90;;
26540;SDS011;14206;50.202;10.948;2023-08-08T02:13:02;2.22;;;1.85;;
26540;SDS011;14206;50.202;10.948;2023-08-08T02:15:29;2.83;;;2.20;;
26540;SDS011;14206;50.202;10.948;2023-08-08T02:17:57;2.60;;;2.03;;
26540;SDS011;14206;50.202;10.948;2023-08-08T02:20:25;4.82;;;2.72;;
26540;SDS011;14206;50.202;10.948;2023-08-08T02:22:52;2.25;;;1.80;;
26540;SDS011;14206;50.202;10.948;2023-08-08T02:25:19;2.25;;;1.58;;
26540;SDS011;14206;50.202;10.948;2023-08-08T02:27:46;3.65;;;1.95;;
26540;SDS011;14206;50.202;10.948;2023-08-08T02:30:13;3.10;;;1.75;;
26540;SDS011;14206;50.202;10.948;2023-08-08T02:32:40;2.10;;;1.80;;
26540;SDS011;14206;50.202;10.948;2023-08-08T02:35:07;2.88;;;2.10;;
26540;SDS011;14206;50.202;10.948;2023-08-08T02:37:34;3.22;;;2.33;;
26540;SDS011;14206;50.202;10.948;2023-08-08T02:40:01;2.63;;;1.77;;
26540;SDS011;14206;50.202;10.948;2023-08-08T02:42:29;2.08;;;1.70;;
26540;SDS011;14206;50.202;10.948;2023-08-08T02:44:56;1.80;;;1.50;;
26540;SDS011;14206;50.202;10.948;2023-08-08T02:47:23;3.58;;;2.05;;
26540;SDS011;14206;50.202;10.948;2023-08-08T02:49:51;2.35;;;1.85;;
26540;SDS011;14206;50.202;10.948;2023-08-08T02:52:18;1.48;;;1.38;;
26540;SDS011;14206;50.202;10.948;2023-08-08T02:54:45;1.90;;;1.48;;
26540;SDS011;14206;50.202;10.948;2023-08-08T02:57:12;2.28;;;1.33;;
26540;SDS011;14206;50.202;10.948;2023-08-08T02:59:40;2.08;;;1.40;;
26540;SDS011;14206;50.202;10.948;2023-08-08T03:02:07;2.20;;;1.38;;
26540;SDS011;14206;50.202;10.948;2023-08-08T03:04:36;1.40;;;1.30;;
26540;SDS011;14206;50.202;10.948;2023-08-08T03:07:05;1.55;;;1.30;;
26540;SDS011;14206;50.202;10.948;2023-08-08T03:09:34;1.77;;;1.40;;
26540;SDS011;14206;50.202;10.948;2023-08-08T03:12:01;1.77;;;1.40;;
26540;SDS011;14206;50.202;10.948;2023-08-08T03:14:30;1.70;;;1.30;;
26540;SDS011;14206;50.202;10.948;2023-08-08T03:16:59;1.30;;;1.10;;
26540;SDS011;14206;50.202;10.948;2023-08-08T03:19:27;1.52;;;1.40;;
26540;SDS011;14206;50.202;10.948;2023-08-08T03:21:55;1.77;;;1.50;;
26540;SDS011;14206;50.202;10.948;2023-08-08T03:24:23;1.60;;;1.42;;
26540;SDS011;14206;50.202;10.948;2023-08-08T03:26:51;2.38;;;1.35;;
26540;SDS011;14206;50.202;10.948;2023-08-08T03:29:17;1.67;;;1.40;;
26540;SDS011;14206;50.202;10.948;2023-08-08T03:31:47;1.80;;;1.55;;
26540;SDS011;14206;50.202;10.948;2023-08-08T03:34:14;2.65;;;1.50;;
26540;SDS011;14206;50.202;10.948;2023-08-08T03:36:42;1.65;;;1.20;;
26540;SDS011;14206;50.202;10.948;2023-08-08T03:39:09;1.77;;;1.40;;
26540;SDS011;14206;50.202;10.948;2023-08-08T03:41:36;1.55;;;1.30;;
26540;SDS011;14206;50.202;10.948;2023-08-08T03:44:04;1.15;;;1.05;;
26540;SDS011;14206;50.202;10.948;2023-08-08T03:46:31;1.23;;;1.13;;
26540;SDS011;14206;50.202;10.948;2023-08-08T03:49:00;1.42;;;1.02;;
26540;SDS011;14206;50.202;10.948;2023-08-08T03:51:27;1.38;;;1.20;;
26540;SDS011;14206;50.202;10.948;2023-08-08T03:53:55;1.48;;;1.20;;
26540;SDS011;14206;50.202;10.948;2023-08-08T03:56:22;1.95;;;1.30;;
26540;SDS011;14206;50.202;10.948;2023-08-08T03:58:49;1.35;;;1.20;;
26540;SDS011;14206;50.202;10.948;2023-08-08T04:01:16;1.20;;;1.10;;
26540;SDS011;14206;50.202;10.948;2023-08-08T04:03:43;1.50;;;1.25;;
26540;SDS011;14206;50.202;10.948;2023-08-08T04:06:10;2.33;;;1.80;;
26540;SDS011;14206;50.202;10.948;2023-08-08T04:08:37;2.40;;;2.10;;
26540;SDS011;14206;50.202;10.948;2023-08-08T04:11:06;3.55;;;2.03;;
26540;SDS011;14206;50.202;10.948;2023-08-08T04:13:33;2.75;;;2.10;;
26540;SDS011;14206;50.202;10.948;2023-08-08T04:16:01;2.67;;;1.65;;
26540;SDS011;14206;50.202;10.948;2023-08-08T04:18:28;3.50;;;2.45;;
26540;SDS011;14206;50.202;10.948;2023-08-08T04:20:55;3.28;;;2.15;;
26540;SDS011;14206;50.202;10.948;2023-08-08T04:23:22;2.20;;;1.73;;
26540;SDS011;14206;50.202;10.948;2023-08-08T04:25:52;1.70;;;1.60;;
26540;SDS011;14206;50.202;10.948;2023-08-08T04:28:19;2.55;;;1.65;;
26540;SDS011;14206;50.202;10.948;2023-08-08T04:30:46;1.63;;;1.33;;
26540;SDS011;14206;50.202;10.948;2023-08-08T04:33:13;1.20;;;1.10;;
26540;SDS011;14206;50.202;10.948;2023-08-08T04:35:41;1.88;;;1.48;;
26540;SDS011;14206;50.202;10.948;2023-08-08T04:38:08;1.40;;;1.30;;
26540;SDS011;14206;50.202;10.948;2023-08-08T04:40:35;1.92;;;1.40;;
26540;SDS011;14206;50.202;10.948;2023-08-08T04:43:04;1.40;;;1.27;;
26540;SDS011;14206;50.202;10.948;2023-08-08T04:45:31;1.60;;;1.42;;
26540;SDS011;14206;50.202;10.948;2023-08-08T04:47:58;1.60;;;1.50;;
26540;SDS011;14206;50.202;10.948;2023-08-08T04:50:25;1.40;;;1.30;;
26540;SDS011;14206;50.202;10.948;2023-08-08T04:52:52;1.50;;;1.30;;
26540;SDS011;14206;50.202;10.948;2023-08-08T04:55:19;1.73;;;1.35;;
26540;SDS011;14206;50.202;10.948;2023-08-08T04:57:46;2.05;;;1.60;;
26540;SDS011;14206;50.202;10.948;2023-08-08T05:00:13;3.25;;;1.60;;
26540;SDS011;14206;50.202;10.948;2023-08-08T05:02:40;2.30;;;1.63;;
26540;SDS011;14206;50.202;10.948;2023-08-08T05:05:08;2.25;;;1.83;;
26540;SDS011;14206;50.202;10.948;2023-08-08T05:07:35;2.10;;;1.90;;
26540;SDS011;14206;50.202;10.948;2023-08-08T05:10:04;2.22;;;1.90;;
26540;SDS011;14206;50.202;10.948;2023-08-08T05:12:31;2.00;;;1.80;;
26540;SDS011;14206;50.202;10.948;2023-08-08T05:14:58;1.88;;;1.60;;
26540;SDS011;14206;50.202;10.948;2023-08-08T05:17:25;1.55;;;1.40;;
26540;SDS011;14206;50.202;10.948;2023-08-08T05:19:52;1.65;;;1.48;;
26540;SDS011;14206;50.202;10.948;2023-08-08T05:22:19;2.60;;;1.80;;
26540;SDS011;14206;50.202;10.948;2023-08-08T05:24:46;2.63;;;2.10;;
26540;SDS011;14206;50.202;10.948;2023-08-08T05:27:13;2.70;;;1.75;;
26540;SDS011;14206;50.202;10.948;2023-08-08T05:29:40;2.45;;;2.00;;
26540;SDS011;14206;50.202;10.948;2023-08-08T05:32:07;1.67;;;1.58;;
26540;SDS011;14206;50.202;10.948;2023-08-08T05:34:34;1.50;;;1.40;;
26540;SDS011;14206;50.202;10.948;2023-08-08T05:37:01;2.17;;;1.50;;
26540;SDS011;14206;50.202;10.948;2023-08-08T05:39:42;2.30;;;1.35;;
26540;SDS011;14206;50.202;10.948;2023-08-08T05:42:10;1.20;;;1.10;;
26540;SDS011;14206;50.202;10.948;2023-08-08T05:44:37;1.42;;;1.27;;
26540;SDS011;14206;50.202;10.948;2023-08-08T05:47:04;1.50;;;1.40;;
26540;SDS011;14206;50.202;10.948;2023-08-08T05:49:31;1.55;;;1.40;;
26540;SDS011;14206;50.202;10.948;2023-08-08T05:51:58;1.50;;;1.40;;
26540;SDS011;14206;50.202;10.948;2023-08-08T05:54:26;1.73;;;1.52;;
26540;SDS011;14206;50.202;10.948;2023-08-08T05:56:53;1.60;;;1.30;;
26540;SDS011;14206;50.202;10.948;2023-08-08T05:59:20;3.90;;;1.92;;
26540;SDS011;14206;50.202;10.948;2023-08-08T06:01:47;2.50;;;2.03;;
26540;SDS011;14206;50.202;10.948;2023-08-08T06:04:14;2.83;;;2.15;;
26540;SDS011;14206;50.202;10.948;2023-08-08T06:06:41;1.80;;;1.70;;
26540;SDS011;14206;50.202;10.948;2023-08-08T06:09:08;2.15;;;1.85;;
26540;SDS011;14206;50.202;10.948;2023-08-08T06:11:35;2.75;;;1.83;;
26540;SDS011;14206;50.202;10.948;2023-08-08T06:14:02;2.95;;;1.80;;
26540;SDS011;14206;50.202;10.948;2023-08-08T06:16:29;2.40;;;1.98;;
26540;SDS011;14206;50.202;10.948;2023-08-08T06:18:56;2.28;;;1.70;;
26540;SDS011;14206;50.202;10.948;2023-08-08T06:21:22;2.10;;;1.90;;
26540;SDS011;14206;50.202;10.948;2023-08-08T06:26:24;2.53;;;2.05;;
26540;SDS011;14206;50.202;10.948;2023-08-08T06:28:52;2.30;;;2.10;;
26540;SDS011;14206;50.202;10.948;2023-08-08T06:31:18;2.33;;;1.90;;
26540;SDS011;14206;50.202;10.948;2023-08-08T06:33:46;4.47;;;2.22;;
26540;SDS011;14206;50.202;10.948;2023-08-08T06:36:12;3.45;;;2.03;;
26540;SDS011;14206;50.202;10.948;2023-08-08T06:38:39;2.80;;;1.95;;
26540;SDS011;14206;50.202;10.948;2023-08-08T06:41:06;3.88;;;1.98;;
26540;SDS011;14206;50.202;10.948;2023-08-08T06:43:34;2.75;;;2.00;;
26540;SDS011;14206;50.202;10.948;2023-08-08T06:46:01;2.45;;;2.05;;
26540;SDS011;14206;50.202;10.948;2023-08-08T06:48:28;2.10;;;1.73;;
26540;SDS011;14206;50.202;10.948;2023-08-08T06:50:56;2.13;;;1.65;;
26540;SDS011;14206;50.202;10.948;2023-08-08T06:53:23;2.30;;;1.70;;
26540;SDS011;14206;50.202;10.948;2023-08-08T06:55:49;1.92;;;1.60;;
26540;SDS011;14206;50.202;10.948;2023-08-08T06:58:16;1.95;;;1.50;;
26540;SDS011;14206;50.202;10.948;2023-08-08T07:00:44;2.88;;;1.60;;
26540;SDS011;14206;50.202;10.948;2023-08-08T07:03:11;1.60;;;1.50;;
26540;SDS011;14206;50.202;10.948;2023-08-08T07:05:38;4.03;;;1.70;;
26540;SDS011;14206;50.202;10.948;2023-08-08T07:08:05;2.45;;;1.70;;
26540;SDS011;14206;50.202;10.948;2023-08-08T07:10:33;1.75;;;1.33;;
26540;SDS011;14206;50.202;10.948;2023-08-08T07:13:01;2.38;;;1.50;;
26540;SDS011;14206;50.202;10.948;2023-08-08T07:15:28;1.88;;;1.38;;
26540;SDS011;14206;50.202;10.948;2023-08-08T07:17:56;1.60;;;1.50;;
26540;SDS011;14206;50.202;10.948;2023-08-08T07:20:23;1.35;;;1.25;;
26540;SDS011;14206;50.202;10.948;2023-08-08T07:22:50;2.60;;;1.70;;
26540;SDS011;14206;50.202;10.948;2023-08-08T07:25:17;2.60;;;1.45;;
26540;SDS011;14206;50.202;10.948;2023-08-08T07:27:44;1.10;;;1.00;;
26540;SDS011;14206;50.202;10.948;2023-08-08T07:30:11;1.30;;;1.20;;
26540;SDS011;14206;50.202;10.948;2023-08-08T07:32:38;1.65;;;1.17;;
26540;SDS011;14206;50.202;10.948;2023-08-08T07:35:05;1.08;;;0.95;;
26540;SDS011;14206;50.202;10.948;2023-08-08T07:37:34;2.45;;;1.50;;
26540;SDS011;14206;50.202;10.948;2023-08-08T07:40:02;1.45;;;1.00;;
26540;SDS011;14206;50.202;10.948;2023-08-08T07:42:30;1.55;;;1.30;;
26540;SDS011;14206;50.202;10.948;2023-08-08T07:44:57;1.77;;;1.10;;
26540;SDS011;14206;50.202;10.948;2023-08-08T07:47:23;1.20;;;1.10;;
26540;SDS011;14206;50.202;10.948;2023-08-08T07:49:50;1.40;;;1.10;;
26540;SDS011;14206;50.202;10.948;2023-08-08T07:52:17;3.78;;;1.00;;
26540;SDS011;14206;50.202;10.948;2023-08-08T07:54:44;1.48;;;0.73;;
26540;SDS011;14206;50.202;10.948;2023-08-08T07:57:11;1.02;;;0.70;;
26540;SDS011;14206;50.202;10.948;2023-08-08T07:59:38;2.33;;;1.10;;
26540;SDS011;14206;50.202;10.948;2023-08-08T08:02:05;1.23;;;0.90;;
26540;SDS011;14206;50.202;10.948;2023-08-08T08:04:32;1.20;;;1.00;;
26540;SDS011;14206;50.202;10.948;2023-08-08T08:06:59;2.42;;;1.00;;
26540;SDS011;14206;50.202;10.948;2023-08-08T08:09:26;1.02;;;0.80;;
26540;SDS011;14206;50.202;10.948;2023-08-08T08:11:53;3.10;;;1.10;;
26540;SDS011;14206;50.202;10.948;2023-08-08T08:14:21;1.27;;;1.17;;
26540;SDS011;14206;50.202;10.948;2023-08-08T08:16:48;1.35;;;0.80;;
26540;SDS011;14206;50.202;10.948;2023-08-08T08:19:15;1.73;;;1.10;;
26540;SDS011;14206;50.202;10.948;2023-08-08T08:21:42;1.13;;;0.88;;
26540;SDS011;14206;50.202;10.948;2023-08-08T08:24:09;1.00;;;0.90;;
26540;SDS011;14206;50.202;10.948;2023-08-08T08:26:36;1.63;;;1.30;;
26540;SDS011;14206;50.202;10.948;2023-08-08T08:29:03;1.90;;;0.90;;
26540;SDS011;14206;50.202;10.948;2023-08-08T08:31:30;1.70;;;1.20;;
26540;SDS011;14206;50.202;10.948;2023-08-08T08:33:57;1.17;;;0.98;;
26540;SDS011;14206;50.202;10.948;2023-08-08T08:36:24;0.90;;;0.80;;
26540;SDS011;14206;50.202;10.948;2023-08-08T08:38:52;1.10;;;1.00;;
26540;SDS011;14206;50.202;10.948;2023-08-08T08:41:19;1.25;;;0.82;;
26540;SDS011;14206;50.202;10.948;2023-08-08T08:43:50;2.22;;;1.10;;
26540;SDS011;14206;50.202;10.948;2023-08-08T08:46:18;1.90;;;1.00;;
26540;SDS011;14206;50.202;10.948;2023-08-08T08:48:49;1.98;;;1.13;;
26540;SDS011;14206;50.202;10.948;2023-08-08T08:51:19;1.83;;;0.90;;
26540;SDS011;14206;50.202;10.948;2023-08-08T08:53:47;1.10;;;0.85;;
26540;SDS011;14206;50.202;10.948;2023-08-08T08:56:14;1.52;;;0.90;;
26540;SDS011;14206;50.202;10.948;2023-08-08T08:58:43;2.10;;;1.13;;
26540;SDS011;14206;50.202;10.948;2023-08-08T09:01:10;1.40;;;0.98;;
26540;SDS011;14206;50.202;10.948;2023-08-08T09:03:37;2.95;;;1.15;;
26540;SDS011;14206;50.202;10.948;2023-08-08T09:06:05;1.30;;;1.00;;
26540;SDS011;14206;50.202;10.948;2023-08-08T09:08:32;2.13;;;1.10;;
26540;SDS011;14206;50.202;10.948;2023-08-08T09:10:59;1.42;;;1.08;;
26540;SDS011;14206;50.202;10.948;2023-08-08T09:13:25;2.53;;;1.10;;
26540;SDS011;14206;50.202;10.948;2023-08-08T09:15:53;1.13;;;0.95;;
26540;SDS011;14206;50.202;10.948;2023-08-08T09:18:22;1.52;;;0.90;;
26540;SDS011;14206;50.202;10.948;2023-08-08T09:20:51;0.93;;;0.80;;
26540;SDS011;14206;50.202;10.948;2023-08-08T09:23:18;1.60;;;0.93;;
26540;SDS011;14206;50.202;10.948;2023-08-08T09:25:45;1.30;;;0.90;;
26540;SDS011;14206;50.202;10.948;2023-08-08T09:28:12;1.58;;;0.95;;
26540;SDS011;14206;50.202;10.948;2023-08-08T09:30:40;1.77;;;0.85;;
26540;SDS011;14206;50.202;10.948;2023-08-08T09:33:08;1.13;;;0.90;;
26540;SDS011;14206;50.202;10.948;2023-08-08T09:35:37;1.00;;;0.90;;
26540;SDS011;14206;50.202;10.948;2023-08-08T09:38:05;2.08;;;1.00;;
26540;SDS011;14206;50.202;10.948;2023-08-08T09:40:32;1.20;;;0.98;;
26540;SDS011;14206;50.202;10.948;2023-08-08T09:42:59;1.38;;;0.98;;
26540;SDS011;14206;50.202;10.948;2023-08-08T09:45:26;0.60;;;0.60;;
26540;SDS011;14206;50.202;10.948;2023-08-08T09:47:53;1.42;;;0.88;;
26540;SDS011;14206;50.202;10.948;2023-08-08T09:50:20;1.25;;;0.90;;
26540;SDS011;14206;50.202;10.948;2023-08-08T09:52:47;2.28;;;1.40;;
26540;SDS011;14206;50.202;10.948;2023-08-08T09:55:14;1.88;;;1.00;;
26540;SDS011;14206;50.202;10.948;2023-08-08T09:57:47;1.20;;;0.85;;
26540;SDS011;14206;50.202;10.948;2023-08-08T10:00:16;1.15;;;0.80;;
26540;SDS011;14206;50.202;10.948;2023-08-08T10:02:44;1.00;;;0.90;;
26540;SDS011;14206;50.202;10.948;2023-08-08T10:05:12;3.25;;;0.90;;
26540;SDS011;14206;50.202;10.948;2023-08-08T10:07:41;1.80;;;1.10;;
26540;SDS011;14206;50.202;10.948;2023-08-08T10:10:08;1.80;;;1.00;;
26540;SDS011;14206;50.202;10.948;2023-08-08T10:12:37;1.25;;;0.90;;
26540;SDS011;14206;50.202;10.948;2023-08-08T10:15:10;2.45;;;1.10;;
26540;SDS011;14206;50.202;10.948;2023-08-08T10:17:38;0.70;;;0.65;;
26540;SDS011;14206;50.202;10.948;2023-08-08T10:20:08;3.22;;;1.10;;
26540;SDS011;14206;50.202;10.948;2023-08-08T10:22:43;2.60;;;1.10;;
26540;SDS011;14206;50.202;10.948;2023-08-08T10:25:19;1.60;;;1.00;;
26540;SDS011;14206;50.202;10.948;2023-08-08T10:27:46;0.93;;;0.90;;
26540;SDS011;14206;50.202;10.948;2023-08-08T10:30:13;1.23;;;0.90;;
26540;SDS011;14206;50.202;10.948;2023-08-08T10:32:41;1.52;;;1.00;;
26540;SDS011;14206;50.202;10.948;2023-08-08T10:35:09;1.63;;;1.20;;
26540;SDS011;14206;50.202;10.948;2023-08-08T10:37:38;1.65;;;1.10;;
26540;SDS011;14206;50.202;10.948;2023-08-08T10:40:05;1.30;;;0.90;;
26540;SDS011;14206;50.202;10.948;2023-08-08T10:42:44;1.02;;;0.93;;
26540;SDS011;14206;50.202;10.948;2023-08-08T10:45:13;2.00;;;1.10;;
26540;SDS011;14206;50.202;10.948;2023-08-08T10:47:42;2.38;;;0.93;;
26540;SDS011;14206;50.202;10.948;2023-08-08T10:50:16;2.25;;;1.00;;
26540;SDS011;14206;50.202;10.948;2023-08-08T10:57:53;0.88;;;0.88;;
26540;SDS011;14206;50.202;10.948;2023-08-08T11:00:24;1.10;;;0.90;;
26540;SDS011;14206;50.202;10.948;2023-08-08T11:02:53;1.67;;;1.00;;
26540;SDS011;14206;50.202;10.948;2023-08-08T11:05:21;1.00;;;0.90;;
26540;SDS011;14206;50.202;10.948;2023-08-08T11:07:49;0.90;;;0.80;;
26540;SDS011;14206;50.202;10.948;2023-08-08T11:10:17;0.93;;;0.88;;
26540;SDS011;14206;50.202;10.948;2023-08-08T11:12:53;1.83;;;1.00;;
26540;SDS011;14206;50.202;10.948;2023-08-08T11:15:21;1.38;;;1.00;;
26540;SDS011;14206;50.202;10.948;2023-08-08T11:17:48;2.88;;;1.10;;
26540;SDS011;14206;50.202;10.948;2023-08-08T11:20:16;1.52;;;1.00;;
26540;SDS011;14206;50.202;10.948;2023-08-08T11:22:43;1.52;;;1.10;;
26540;SDS011;14206;50.202;10.948;2023-08-08T11:25:09;1.77;;;1.00;;
26540;SDS011;14206;50.202;10.948;2023-08-08T11:27:47;2.30;;;1.30;;
26540;SDS011;14206;50.202;10.948;2023-08-08T11:30:15;0.90;;;0.80;;
26540;SDS011;14206;50.202;10.948;2023-08-08T11:32:43;1.45;;;1.10;;
26540;SDS011;14206;50.202;10.948;2023-08-08T11:35:10;1.77;;;0.80;;
26540;SDS011;14206;50.202;10.948;2023-08-08T11:37:37;2.67;;;1.30;;
26540;SDS011;14206;50.202;10.948;2023-08-08T11:40:05;1.67;;;1.10;;
26540;SDS011;14206;50.202;10.948;2023-08-08T11:42:32;2.58;;;1.20;;
26540;SDS011;14206;50.202;10.948;2023-08-08T11:45:00;1.90;;;0.90;;
26540;SDS011;14206;50.202;10.948;2023-08-08T11:47:27;1.35;;;0.90;;
26540;SDS011;14206;50.202;10.948;2023-08-08T11:49:58;1.80;;;1.10;;
26540;SDS011;14206;50.202;10.948;2023-08-08T11:52:25;1.23;;;0.98;;
26540;SDS011;14206;50.202;10.948;2023-08-08T11:54:54;2.60;;;1.05;;
26540;SDS011;14206;50.202;10.948;2023-08-08T11:57:21;1.10;;;1.00;;
26540;SDS011;14206;50.202;10.948;2023-08-08T11:59:48;1.92;;;1.20;;
26540;SDS011;14206;50.202;10.948;2023-08-08T12:02:15;3.13;;;1.00;;
26540;SDS011;14206;50.202;10.948;2023-08-08T12:04:45;1.58;;;0.90;;
26540;SDS011;14206;50.202;10.948;2023-08-08T12:07:13;1.45;;;0.90;;
26540;SDS011;14206;50.202;10.948;2023-08-08T12:09:40;2.95;;;1.00;;
26540;SDS011;14206;50.202;10.948;2023-08-08T12:12:08;1.05;;;0.95;;
26540;SDS011;14206;50.202;10.948;2023-08-08T12:14:37;1.40;;;1.00;;
26540;SDS011;14206;50.202;10.948;2023-08-08T12:17:17;1.27;;;0.98;;
26540;SDS011;14206;50.202;10.948;2023-08-08T12:19:47;1.45;;;1.00;;
26540;SDS011;14206;50.202;10.948;2023-08-08T12:22:14;1.13;;;0.90;;
26540;SDS011;14206;50.202;10.948;2023-08-08T12:24:41;1.40;;;0.80;;
26540;SDS011;14206;50.202;10.948;2023-08-08T12:27:08;1.50;;;1.10;;
26540;SDS011;14206;50.202;10.948;2023-08-08T12:29:38;1.33;;;0.95;;
26540;SDS011;14206;50.202;10.948;2023-08-08T12:32:05;2.10;;;1.40;;
26540;SDS011;14206;50.202;10.948;2023-08-08T12:34:34;1.67;;;1.02;;
26540;SDS011;14206;50.202;10.948;2023-08-08T12:37:02;1.02;;;0.90;;
26540;SDS011;14206;50.202;10.948;2023-08-08T12:39:29;1.50;;;1.00;;
26540;SDS011;14206;50.202;10.948;2023-08-08T12:41:56;1.70;;;1.00;;
26540;SDS011;14206;50.202;10.948;2023-08-08T12:44:23;1.02;;;0.93;;
26540;SDS011;14206;50.202;10.948;2023-08-08T12:46:50;1.00;;;0.90;;
26540;SDS011;14206;50.202;10.948;2023-08-08T12:49:17;2.85;;;1.15;;
26540;SDS011;14206;50.202;10.948;2023-08-08T12:51:44;1.30;;;1.00;;
26540;SDS011;14206;50.202;10.948;2023-08-08T12:54:11;1.35;;;0.93;;
26540;SDS011;14206;50.202;10.948;2023-08-08T12:56:38;1.75;;;1.00;;
26540;SDS011;14206;50.202;10.948;2023-08-08T12:59:04;2.80;;;0.90;;
26540;SDS011;14206;50.202;10.948;2023-08-08T13:01:32;1.67;;;0.98;;
26540;SDS011;14206;50.202;10.948;2023-08-08T13:03:59;1.30;;;1.00;;
26540;SDS011;14206;50.202;10.948;2023-08-08T13:06:44;1.40;;;1.00;;
26540;SDS011;14206;50.202;10.948;2023-08-08T13:09:11;0.82;;;0.80;;
26540;SDS011;14206;50.202;10.948;2023-08-08T13:11:38;1.33;;;0.90;;
26540;SDS011;14206;50.202;10.948;2023-08-08T13:14:06;1.02;;;0.80;;
26540;SDS011;14206;50.202;10.948;2023-08-08T13:16:33;1.35;;;0.80;;
26540;SDS011;14206;50.202;10.948;2023-08-08T13:19:00;1.63;;;0.90;;
26540;SDS011;14206;50.202;10.948;2023-08-08T13:21:27;1.50;;;1.10;;
26540;SDS011;14206;50.202;10.948;2023-08-08T13:23:54;2.05;;;1.10;;
26540;SDS011;14206;50.202;10.948;2023-08-08T13:26:21;1.88;;;1.00;;
26540;SDS011;14206;50.202;10.948;2023-08-08T13:28:47;1.52;;;1.00;;
26540;SDS011;14206;50.202;10.948;2023-08-08T13:31:16;4.25;;;1.30;;
26540;SDS011;14206;50.202;10.948;2023-08-08T13:33:43;1.58;;;1.00;;
26540;SDS011;14206;50.202;10.948;2023-08-08T13:36:10;3.00;;;1.00;;
26540;SDS011;14206;50.202;10.948;2023-08-08T13:38:37;2.15;;;1.00;;
26540;SDS011;14206;50.202;10.948;2023-08-08T13:41:04;1.13;;;0.93;;
26540;SDS011;14206;50.202;10.948;2023-08-08T13:43:31;2.17;;;0.90;;
26540;SDS011;14206;50.202;10.948;2023-08-08T13:45:57;1.40;;;0.90;;
26540;SDS011;14206;50.202;10.948;2023-08-08T13:48:25;2.67;;;1.02;;
26540;SDS011;14206;50.202;10.948;2023-08-08T13:50:52;3.08;;;1.00;;
26540;SDS011;14206;50.202;10.948;2023-08-08T13:53:19;1.63;;;1.00;;
26540;SDS011;14206;50.202;10.948;2023-08-08T13:55:46;1.45;;;0.95;;
26540;SDS011;14206;50.202;10.948;2023-08-08T13:58:13;1.10;;;0.85;;
26540;SDS011;14206;50.202;10.948;2023-08-08T14:00:40;3.35;;;1.20;;
26540;SDS011;14206;50.202;10.948;2023-08-08T14:03:07;1.70;;;1.13;;
26540;SDS011;14206;50.202;10.948;2023-08-08T14:05:35;1.52;;;1.05;;
26540;SDS011;14206;50.202;10.948;2023-08-08T14:08:03;2.63;;;1.30;;
26540;SDS011;14206;50.202;10.948;2023-08-08T14:10:31;1.38;;;1.00;;
26540;SDS011;14206;50.202;10.948;2023-08-08T14:12:58;1.50;;;1.00;;
26540;SDS011;14206;50.202;10.948;2023-08-08T14:15:25;1.48;;;1.05;;
26540;SDS011;14206;50.202;10.948;2023-08-08T14:18:05;1.15;;;0.98;;
26540;SDS011;14206;50.202;10.948;2023-08-08T14:20:32;1.35;;;1.10;;
26540;SDS011;14206;50.202;10.948;2023-08-08T14:22:59;1.13;;;1.00;;
26540;SDS011;14206;50.202;10.948;2023-08-08T14:25:26;1.80;;;1.08;;
26540;SDS011;14206;50.202;10.948;2023-08-08T14:27:53;0.85;;;0.75;;
26540;SDS011;14206;50.202;10.948;2023-08-08T14:30:20;1.60;;;0.95;;
26540;SDS011;14206;50.202;10.948;2023-08-08T14:32:47;1.10;;;1.00;;
26540;SDS011;14206;50.202;10.948;2023-08-08T14:35:14;2.35;;;1.10;;
26540;SDS011;14206;50.202;10.948;2023-08-08T14:37:41;1.85;;;1.08;;
26540;SDS011;14206;50.202;10.948;2023-08-08T14:40:08;2.92;;;1.08;;
26540;SDS011;14206;50.202;10.948;2023-08-08T14:42:35;2.40;;;1.20;;
26540;SDS011;14206;50.202;10.948;2023-08-08T14:45:02;1.45;;;1.20;;